sensor_id;sensor_type;location;lat;lon;timestamp;P1;durP1;ratioP1;P2;durP2;ratioP2
54261;SDS011;40174;52.364;6.452;2023-07-30T00:00:54;3.65;;;0.75;;
54261;SDS011;40174;52.364;6.452;2023-07-30T00:03:20;4.43;;;0.80;;
54261;SDS011;40174;52.364;6.452;2023-07-30T00:05:53;4.82;;;0.90;;
54261;SDS011;40174;52.364;6.452;2023-07-30T00:08:20;2.78;;;0.85;;
54261;SDS011;40174;52.364;6.452;2023-07-30T00:10:47;4.72;;;0.88;;
54261;SDS011;40174;52.364;6.452;2023-07-30T00:13:14;7.10;;;0.93;;
54261;SDS011;40174;52.364;6.452;2023-07-30T00:15:42;1.48;;;0.70;;
54261;SDS011;40174;52.364;6.452;2023-07-30T00:18:08;5.60;;;0.88;;
54261;SDS011;40174;52.364;6.452;2023-07-30T00:20:35;2.60;;;0.90;;
54261;SDS011;40174;52.364;6.452;2023-07-30T00:23:02;2.88;;;0.80;;
54261;SDS011;40174;52.364;6.452;2023-07-30T00:25:29;5.20;;;1.10;;
54261;SDS011;40174;52.364;6.452;2023-07-30T00:27:55;5.35;;;1.25;;
54261;SDS011;40174;52.364;6.452;2023-07-30T00:30:22;6.95;;;1.25;;
54261;SDS011;40174;52.364;6.452;2023-07-30T00:32:50;2.35;;;0.85;;
54261;SDS011;40174;52.364;6.452;2023-07-30T00:35:16;8.98;;;1.33;;
54261;SDS011;40174;52.364;6.452;2023-07-30T00:37:43;8.38;;;1.13;;
54261;SDS011;40174;52.364;6.452;2023-07-30T00:40:10;6.53;;;1.60;;
54261;SDS011;40174;52.364;6.452;2023-07-30T00:42:37;3.38;;;0.80;;
54261;SDS011;40174;52.364;6.452;2023-07-30T00:45:04;2.53;;;0.90;;
54261;SDS011;40174;52.364;6.452;2023-07-30T00:47:32;4.53;;;1.13;;
54261;SDS011;40174;52.364;6.452;2023-07-30T00:50:00;1.17;;;0.77;;
54261;SDS011;40174;52.364;6.452;2023-07-30T00:52:27;3.53;;;1.05;;
54261;SDS011;40174;52.364;6.452;2023-07-30T00:54:54;4.25;;;1.23;;
54261;SDS011;40174;52.364;6.452;2023-07-30T00:57:23;1.50;;;0.75;;
54261;SDS011;40174;52.364;6.452;2023-07-30T00:59:51;3.42;;;1.02;;
54261;SDS011;40174;52.364;6.452;2023-07-30T01:02:19;7.75;;;0.98;;
54261;SDS011;40174;52.364;6.452;2023-07-30T01:04:46;2.50;;;0.73;;
54261;SDS011;40174;52.364;6.452;2023-07-30T01:07:15;3.65;;;1.02;;
54261;SDS011;40174;52.364;6.452;2023-07-30T01:09:41;5.95;;;1.15;;
54261;SDS011;40174;52.364;6.452;2023-07-30T01:12:08;5.22;;;0.85;;
54261;SDS011;40174;52.364;6.452;2023-07-30T01:14:35;4.68;;;1.15;;
54261;SDS011;40174;52.364;6.452;2023-07-30T01:17:04;4.13;;;1.00;;
54261;SDS011;40174;52.364;6.452;2023-07-30T01:19:31;3.50;;;1.27;;
54261;SDS011;40174;52.364;6.452;2023-07-30T01:21:59;4.20;;;1.33;;
54261;SDS011;40174;52.364;6.452;2023-07-30T01:24:25;4.13;;;1.60;;
54261;SDS011;40174;52.364;6.452;2023-07-30T01:26:54;6.50;;;1.60;;
54261;SDS011;40174;52.364;6.452;2023-07-30T01:29:25;4.05;;;1.48;;
54261;SDS011;40174;52.364;6.452;2023-07-30T01:31:58;5.35;;;1.40;;
54261;SDS011;40174;52.364;6.452;2023-07-30T01:34:30;9.07;;;1.80;;
54261;SDS011;40174;52.364;6.452;2023-07-30T01:41:05;6.30;;;1.33;;
54261;SDS011;40174;52.364;6.452;2023-07-30T01:43:32;4.60;;;1.40;;
54261;SDS011;40174;52.364;6.452;2023-07-30T01:45:59;5.90;;;1.30;;
54261;SDS011;40174;52.364;6.452;2023-07-30T01:48:26;7.10;;;1.15;;
54261;SDS011;40174;52.364;6.452;2023-07-30T01:50:53;2.70;;;1.20;;
54261;SDS011;40174;52.364;6.452;2023-07-30T01:53:19;3.33;;;1.17;;
54261;SDS011;40174;52.364;6.452;2023-07-30T01:55:46;3.25;;;1.40;;
54261;SDS011;40174;52.364;6.452;2023-07-30T01:58:14;2.92;;;1.13;;
54261;SDS011;40174;52.364;6.452;2023-07-30T02:00:41;5.57;;;1.75;;
54261;SDS011;40174;52.364;6.452;2023-07-30T02:03:08;3.42;;;1.20;;
54261;SDS011;40174;52.364;6.452;2023-07-30T02:05:34;3.58;;;1.00;;
54261;SDS011;40174;52.364;6.452;2023-07-30T02:08:01;5.10;;;1.80;;
54261;SDS011;40174;52.364;6.452;2023-07-30T02:10:29;7.53;;;1.55;;
54261;SDS011;40174;52.364;6.452;2023-07-30T02:12:56;4.53;;;1.33;;
54261;SDS011;40174;52.364;6.452;2023-07-30T02:15:24;4.28;;;1.45;;
54261;SDS011;40174;52.364;6.452;2023-07-30T02:17:51;4.35;;;1.63;;
54261;SDS011;40174;52.364;6.452;2023-07-30T02:20:17;5.90;;;1.70;;
54261;SDS011;40174;52.364;6.452;2023-07-30T02:22:45;5.60;;;1.50;;
54261;SDS011;40174;52.364;6.452;2023-07-30T02:25:11;6.63;;;1.33;;
54261;SDS011;40174;52.364;6.452;2023-07-30T02:27:38;5.78;;;1.67;;
54261;SDS011;40174;52.364;6.452;2023-07-30T02:30:05;4.15;;;1.30;;
54261;SDS011;40174;52.364;6.452;2023-07-30T02:32:34;3.08;;;1.23;;
54261;SDS011;40174;52.364;6.452;2023-07-30T02:35:01;5.13;;;1.45;;
54261;SDS011;40174;52.364;6.452;2023-07-30T02:37:27;4.47;;;1.77;;
54261;SDS011;40174;52.364;6.452;2023-07-30T02:39:54;6.72;;;1.33;;
54261;SDS011;40174;52.364;6.452;2023-07-30T02:42:21;8.40;;;1.70;;
54261;SDS011;40174;52.364;6.452;2023-07-30T02:44:48;2.90;;;1.38;;
54261;SDS011;40174;52.364;6.452;2023-07-30T02:47:14;6.57;;;1.60;;
54261;SDS011;40174;52.364;6.452;2023-07-30T02:49:42;4.95;;;1.23;;
54261;SDS011;40174;52.364;6.452;2023-07-30T02:52:09;9.52;;;1.45;;
54261;SDS011;40174;52.364;6.452;2023-07-30T02:54:36;2.88;;;1.08;;
54261;SDS011;40174;52.364;6.452;2023-07-30T02:57:02;3.70;;;1.35;;
54261;SDS011;40174;52.364;6.452;2023-07-30T02:59:30;4.78;;;1.30;;
54261;SDS011;40174;52.364;6.452;2023-07-30T03:01:56;5.65;;;2.10;;
54261;SDS011;40174;52.364;6.452;2023-07-30T03:04:23;3.38;;;1.35;;
54261;SDS011;40174;52.364;6.452;2023-07-30T03:06:51;4.03;;;1.23;;
54261;SDS011;40174;52.364;6.452;2023-07-30T03:09:18;3.67;;;1.42;;
54261;SDS011;40174;52.364;6.452;2023-07-30T03:11:44;5.18;;;1.25;;
54261;SDS011;40174;52.364;6.452;2023-07-30T03:14:11;7.25;;;1.23;;
54261;SDS011;40174;52.364;6.452;2023-07-30T03:16:37;6.82;;;1.40;;
54261;SDS011;40174;52.364;6.452;2023-07-30T03:19:04;4.57;;;1.67;;
54261;SDS011;40174;52.364;6.452;2023-07-30T03:21:31;7.13;;;1.33;;
54261;SDS011;40174;52.364;6.452;2023-07-30T03:23:59;6.28;;;1.20;;
54261;SDS011;40174;52.364;6.452;2023-07-30T03:26:25;3.47;;;0.98;;
54261;SDS011;40174;52.364;6.452;2023-07-30T03:28:53;3.45;;;1.15;;
54261;SDS011;40174;52.364;6.452;2023-07-30T03:31:19;2.13;;;0.95;;
54261;SDS011;40174;52.364;6.452;2023-07-30T03:33:46;3.42;;;1.50;;
54261;SDS011;40174;52.364;6.452;2023-07-30T03:36:13;4.22;;;0.93;;
54261;SDS011;40174;52.364;6.452;2023-07-30T03:38:40;10.30;;;1.60;;
54261;SDS011;40174;52.364;6.452;2023-07-30T03:41:08;4.90;;;1.45;;
54261;SDS011;40174;52.364;6.452;2023-07-30T03:43:35;4.07;;;1.40;;
54261;SDS011;40174;52.364;6.452;2023-07-30T03:46:02;3.85;;;0.98;;
54261;SDS011;40174;52.364;6.452;2023-07-30T03:48:30;4.32;;;1.05;;
54261;SDS011;40174;52.364;6.452;2023-07-30T03:50:56;8.15;;;1.80;;
54261;SDS011;40174;52.364;6.452;2023-07-30T03:53:23;14.25;;;2.00;;
54261;SDS011;40174;52.364;6.452;2023-07-30T03:55:50;2.10;;;1.05;;
54261;SDS011;40174;52.364;6.452;2023-07-30T03:58:18;7.03;;;1.33;;
54261;SDS011;40174;52.364;6.452;2023-07-30T04:00:44;9.18;;;1.48;;
54261;SDS011;40174;52.364;6.452;2023-07-30T04:03:11;10.02;;;3.13;;
54261;SDS011;40174;52.364;6.452;2023-07-30T04:05:38;2.20;;;0.90;;
54261;SDS011;40174;52.364;6.452;2023-07-30T04:08:05;4.78;;;1.35;;
54261;SDS011;40174;52.364;6.452;2023-07-30T04:10:31;4.22;;;1.50;;
54261;SDS011;40174;52.364;6.452;2023-07-30T04:12:58;7.10;;;1.40;;
54261;SDS011;40174;52.364;6.452;2023-07-30T04:15:29;3.30;;;1.50;;
54261;SDS011;40174;52.364;6.452;2023-07-30T04:17:55;6.85;;;1.60;;
54261;SDS011;40174;52.364;6.452;2023-07-30T04:20:23;4.97;;;1.50;;
54261;SDS011;40174;52.364;6.452;2023-07-30T04:22:50;10.50;;;2.50;;
54261;SDS011;40174;52.364;6.452;2023-07-30T04:25:17;5.70;;;1.70;;
54261;SDS011;40174;52.364;6.452;2023-07-30T04:27:44;6.40;;;1.80;;
54261;SDS011;40174;52.364;6.452;2023-07-30T04:30:11;4.97;;;1.58;;
54261;SDS011;40174;52.364;6.452;2023-07-30T04:32:40;4.28;;;1.50;;
54261;SDS011;40174;52.364;6.452;2023-07-30T04:35:07;7.05;;;1.63;;
54261;SDS011;40174;52.364;6.452;2023-07-30T04:37:34;9.00;;;2.15;;
54261;SDS011;40174;52.364;6.452;2023-07-30T04:40:00;7.28;;;2.25;;
54261;SDS011;40174;52.364;6.452;2023-07-30T04:42:30;5.85;;;2.53;;
54261;SDS011;40174;52.364;6.452;2023-07-30T04:44:56;7.97;;;1.67;;
54261;SDS011;40174;52.364;6.452;2023-07-30T04:47:23;5.80;;;1.90;;
54261;SDS011;40174;52.364;6.452;2023-07-30T04:49:51;9.13;;;2.13;;
54261;SDS011;40174;52.364;6.452;2023-07-30T04:52:18;8.10;;;1.98;;
54261;SDS011;40174;52.364;6.452;2023-07-30T04:54:45;7.90;;;1.92;;
54261;SDS011;40174;52.364;6.452;2023-07-30T04:57:11;9.30;;;1.90;;
54261;SDS011;40174;52.364;6.452;2023-07-30T04:59:38;13.75;;;2.67;;
54261;SDS011;40174;52.364;6.452;2023-07-30T05:02:05;7.30;;;2.22;;
54261;SDS011;40174;52.364;6.452;2023-07-30T05:04:32;8.88;;;1.83;;
54261;SDS011;40174;52.364;6.452;2023-07-30T05:07:00;10.32;;;2.00;;
54261;SDS011;40174;52.364;6.452;2023-07-30T05:09:27;12.00;;;2.13;;
54261;SDS011;40174;52.364;6.452;2023-07-30T05:11:53;16.08;;;2.58;;
54261;SDS011;40174;52.364;6.452;2023-07-30T05:14:20;12.98;;;2.38;;
54261;SDS011;40174;52.364;6.452;2023-07-30T05:16:47;6.13;;;2.38;;
54261;SDS011;40174;52.364;6.452;2023-07-30T05:19:13;17.83;;;3.30;;
54261;SDS011;40174;52.364;6.452;2023-07-30T05:21:40;12.35;;;3.15;;
54261;SDS011;40174;52.364;6.452;2023-07-30T05:24:08;10.18;;;2.65;;
54261;SDS011;40174;52.364;6.452;2023-07-30T05:26:35;4.20;;;1.85;;
54261;SDS011;40174;52.364;6.452;2023-07-30T05:29:01;13.20;;;2.58;;
54261;SDS011;40174;52.364;6.452;2023-07-30T05:31:28;9.52;;;2.80;;
54261;SDS011;40174;52.364;6.452;2023-07-30T05:33:55;13.95;;;3.33;;
54261;SDS011;40174;52.364;6.452;2023-07-30T05:36:21;11.07;;;2.95;;
54261;SDS011;40174;52.364;6.452;2023-07-30T05:38:48;13.32;;;3.25;;
54261;SDS011;40174;52.364;6.452;2023-07-30T05:41:16;10.85;;;3.00;;
54261;SDS011;40174;52.364;6.452;2023-07-30T05:43:42;13.77;;;2.75;;
54261;SDS011;40174;52.364;6.452;2023-07-30T05:46:09;8.27;;;2.70;;
54261;SDS011;40174;52.364;6.452;2023-07-30T05:48:36;8.13;;;2.55;;
54261;SDS011;40174;52.364;6.452;2023-07-30T05:51:02;16.75;;;3.22;;
54261;SDS011;40174;52.364;6.452;2023-07-30T05:53:29;12.02;;;3.03;;
54261;SDS011;40174;52.364;6.452;2023-07-30T05:55:56;19.10;;;4.07;;
54261;SDS011;40174;52.364;6.452;2023-07-30T05:58:24;8.95;;;2.30;;
54261;SDS011;40174;52.364;6.452;2023-07-30T06:00:50;13.15;;;3.30;;
54261;SDS011;40174;52.364;6.452;2023-07-30T06:03:17;11.00;;;3.45;;
54261;SDS011;40174;52.364;6.452;2023-07-30T06:05:44;14.32;;;3.67;;
54261;SDS011;40174;52.364;6.452;2023-07-30T06:08:11;11.90;;;3.22;;
54261;SDS011;40174;52.364;6.452;2023-07-30T06:10:37;9.00;;;2.67;;
54261;SDS011;40174;52.364;6.452;2023-07-30T06:13:05;9.13;;;3.60;;
54261;SDS011;40174;52.364;6.452;2023-07-30T06:15:33;12.00;;;3.80;;
54261;SDS011;40174;52.364;6.452;2023-07-30T06:18:00;13.85;;;3.33;;
54261;SDS011;40174;52.364;6.452;2023-07-30T06:20:27;15.02;;;4.00;;
54261;SDS011;40174;52.364;6.452;2023-07-30T06:22:54;16.20;;;4.28;;
54261;SDS011;40174;52.364;6.452;2023-07-30T06:25:21;19.88;;;4.28;;
54261;SDS011;40174;52.364;6.452;2023-07-30T06:27:48;16.92;;;3.60;;
54261;SDS011;40174;52.364;6.452;2023-07-30T06:30:14;16.58;;;4.45;;
54261;SDS011;40174;52.364;6.452;2023-07-30T06:32:42;12.50;;;3.63;;
54261;SDS011;40174;52.364;6.452;2023-07-30T06:35:09;11.23;;;3.78;;
54261;SDS011;40174;52.364;6.452;2023-07-30T06:37:36;18.35;;;4.30;;
54261;SDS011;40174;52.364;6.452;2023-07-30T06:40:02;16.58;;;3.92;;
54261;SDS011;40174;52.364;6.452;2023-07-30T06:42:31;14.65;;;3.40;;
54261;SDS011;40174;52.364;6.452;2023-07-30T06:44:58;12.50;;;3.85;;
54261;SDS011;40174;52.364;6.452;2023-07-30T06:47:24;15.35;;;3.17;;
54261;SDS011;40174;52.364;6.452;2023-07-30T06:49:52;24.80;;;4.60;;
54261;SDS011;40174;52.364;6.452;2023-07-30T06:52:19;12.52;;;3.58;;
54261;SDS011;40174;52.364;6.452;2023-07-30T06:54:46;12.57;;;4.40;;
54261;SDS011;40174;52.364;6.452;2023-07-30T06:57:13;14.23;;;4.13;;
54261;SDS011;40174;52.364;6.452;2023-07-30T06:59:39;13.02;;;4.10;;
54261;SDS011;40174;52.364;6.452;2023-07-30T07:02:06;18.83;;;5.22;;
54261;SDS011;40174;52.364;6.452;2023-07-30T07:04:33;14.57;;;3.55;;
54261;SDS011;40174;52.364;6.452;2023-07-30T07:07:01;12.60;;;3.83;;
54261;SDS011;40174;52.364;6.452;2023-07-30T07:09:28;15.48;;;4.75;;
54261;SDS011;40174;52.364;6.452;2023-07-30T07:11:55;14.73;;;4.05;;
54261;SDS011;40174;52.364;6.452;2023-07-30T07:14:22;10.93;;;3.67;;
54261;SDS011;40174;52.364;6.452;2023-07-30T07:16:48;10.05;;;3.90;;
54261;SDS011;40174;52.364;6.452;2023-07-30T07:19:15;14.45;;;4.15;;
54261;SDS011;40174;52.364;6.452;2023-07-30T07:21:42;12.88;;;3.00;;
54261;SDS011;40174;52.364;6.452;2023-07-30T07:24:10;10.98;;;4.13;;
54261;SDS011;40174;52.364;6.452;2023-07-30T07:26:36;19.92;;;4.13;;
54261;SDS011;40174;52.364;6.452;2023-07-30T07:29:03;14.52;;;3.67;;
54261;SDS011;40174;52.364;6.452;2023-07-30T07:31:30;10.77;;;3.38;;
54261;SDS011;40174;52.364;6.452;2023-07-30T07:33:56;10.93;;;4.28;;
54261;SDS011;40174;52.364;6.452;2023-07-30T07:36:23;9.13;;;2.95;;
54261;SDS011;40174;52.364;6.452;2023-07-30T07:38:50;12.57;;;3.30;;
54261;SDS011;40174;52.364;6.452;2023-07-30T07:41:17;13.23;;;4.13;;
54261;SDS011;40174;52.364;6.452;2023-07-30T07:43:45;11.02;;;3.38;;
54261;SDS011;40174;52.364;6.452;2023-07-30T07:46:13;13.82;;;3.45;;
54261;SDS011;40174;52.364;6.452;2023-07-30T07:48:40;8.13;;;3.25;;
54261;SDS011;40174;52.364;6.452;2023-07-30T07:51:07;15.27;;;3.28;;
54261;SDS011;40174;52.364;6.452;2023-07-30T07:53:34;10.25;;;3.47;;
54261;SDS011;40174;52.364;6.452;2023-07-30T07:56:01;12.43;;;3.10;;
54261;SDS011;40174;52.364;6.452;2023-07-30T07:58:30;12.35;;;3.30;;
54261;SDS011;40174;52.364;6.452;2023-07-30T08:00:57;16.63;;;5.35;;
54261;SDS011;40174;52.364;6.452;2023-07-30T08:03:24;10.65;;;3.63;;
54261;SDS011;40174;52.364;6.452;2023-07-30T08:05:52;7.35;;;3.42;;
54261;SDS011;40174;52.364;6.452;2023-07-30T08:08:19;7.95;;;3.78;;
54261;SDS011;40174;52.364;6.452;2023-07-30T08:10:45;12.90;;;3.17;;
54261;SDS011;40174;52.364;6.452;2023-07-30T08:13:12;10.40;;;3.92;;
54261;SDS011;40174;52.364;6.452;2023-07-30T08:15:41;9.60;;;3.47;;
54261;SDS011;40174;52.364;6.452;2023-07-30T08:18:07;12.38;;;3.70;;
54261;SDS011;40174;52.364;6.452;2023-07-30T08:20:36;12.70;;;3.30;;
54261;SDS011;40174;52.364;6.452;2023-07-30T08:23:03;12.23;;;3.50;;
54261;SDS011;40174;52.364;6.452;2023-07-30T08:25:29;15.60;;;3.00;;
54261;SDS011;40174;52.364;6.452;2023-07-30T08:27:56;10.18;;;3.20;;
54261;SDS011;40174;52.364;6.452;2023-07-30T08:30:22;13.18;;;3.05;;
54261;SDS011;40174;52.364;6.452;2023-07-30T08:32:50;9.73;;;3.70;;
54261;SDS011;40174;52.364;6.452;2023-07-30T08:35:17;10.20;;;2.70;;
54261;SDS011;40174;52.364;6.452;2023-07-30T08:37:44;11.55;;;3.10;;
54261;SDS011;40174;52.364;6.452;2023-07-30T08:40:11;10.00;;;2.92;;
54261;SDS011;40174;52.364;6.452;2023-07-30T08:42:37;12.70;;;2.65;;
54261;SDS011;40174;52.364;6.452;2023-07-30T08:45:05;8.75;;;2.65;;
54261;SDS011;40174;52.364;6.452;2023-07-30T08:47:33;13.13;;;2.70;;
54261;SDS011;40174;52.364;6.452;2023-07-30T08:50:01;9.25;;;2.80;;
54261;SDS011;40174;52.364;6.452;2023-07-30T08:52:28;8.18;;;3.03;;
54261;SDS011;40174;52.364;6.452;2023-07-30T08:54:56;8.30;;;2.13;;
54261;SDS011;40174;52.364;6.452;2023-07-30T08:57:25;10.48;;;3.28;;
54261;SDS011;40174;52.364;6.452;2023-07-30T08:59:57;13.05;;;2.90;;
54261;SDS011;40174;52.364;6.452;2023-07-30T09:02:30;6.60;;;2.20;;
54261;SDS011;40174;52.364;6.452;2023-07-30T09:05:00;9.10;;;2.55;;
54261;SDS011;40174;52.364;6.452;2023-07-30T09:07:28;8.23;;;2.35;;
54261;SDS011;40174;52.364;6.452;2023-07-30T09:09:55;6.95;;;2.42;;
54261;SDS011;40174;52.364;6.452;2023-07-30T09:12:25;6.82;;;2.30;;
54261;SDS011;40174;52.364;6.452;2023-07-30T09:14:52;6.38;;;2.15;;
54261;SDS011;40174;52.364;6.452;2023-07-30T09:17:19;5.90;;;2.20;;
54261;SDS011;40174;52.364;6.452;2023-07-30T09:19:46;5.80;;;2.08;;
54261;SDS011;40174;52.364;6.452;2023-07-30T09:22:23;8.00;;;2.30;;
54261;SDS011;40174;52.364;6.452;2023-07-30T09:24:51;9.25;;;1.75;;
54261;SDS011;40174;52.364;6.452;2023-07-30T09:27:19;6.28;;;2.38;;
54261;SDS011;40174;52.364;6.452;2023-07-30T09:29:50;6.05;;;2.13;;
54261;SDS011;40174;52.364;6.452;2023-07-30T09:32:18;8.02;;;1.98;;
54261;SDS011;40174;52.364;6.452;2023-07-30T09:34:45;6.88;;;1.80;;
54261;SDS011;40174;52.364;6.452;2023-07-30T09:37:12;6.55;;;2.10;;
54261;SDS011;40174;52.364;6.452;2023-07-30T09:39:41;12.40;;;2.17;;
54261;SDS011;40174;52.364;6.452;2023-07-30T09:42:07;7.60;;;1.85;;
54261;SDS011;40174;52.364;6.452;2023-07-30T09:44:35;11.15;;;2.50;;
54261;SDS011;40174;52.364;6.452;2023-07-30T09:47:04;6.22;;;2.33;;
54261;SDS011;40174;52.364;6.452;2023-07-30T09:49:31;5.93;;;2.35;;
54261;SDS011;40174;52.364;6.452;2023-07-30T09:51:58;6.13;;;1.92;;
54261;SDS011;40174;52.364;6.452;2023-07-30T09:54:25;10.30;;;2.60;;
54261;SDS011;40174;52.364;6.452;2023-07-30T09:56:54;8.18;;;2.70;;
54261;SDS011;40174;52.364;6.452;2023-07-30T09:59:20;6.38;;;1.98;;
54261;SDS011;40174;52.364;6.452;2023-07-30T10:01:48;9.73;;;2.33;;
54261;SDS011;40174;52.364;6.452;2023-07-30T10:04:18;9.00;;;2.38;;
54261;SDS011;40174;52.364;6.452;2023-07-30T10:06:46;6.55;;;2.40;;
54261;SDS011;40174;52.364;6.452;2023-07-30T10:09:17;7.50;;;2.58;;
54261;SDS011;40174;52.364;6.452;2023-07-30T10:11:45;4.68;;;1.95;;
54261;SDS011;40174;52.364;6.452;2023-07-30T10:14:15;9.45;;;2.10;;
54261;SDS011;40174;52.364;6.452;2023-07-30T10:16:54;9.48;;;2.58;;
54261;SDS011;40174;52.364;6.452;2023-07-30T10:19:22;7.85;;;2.45;;
54261;SDS011;40174;52.364;6.452;2023-07-30T10:21:49;7.97;;;2.50;;
54261;SDS011;40174;52.364;6.452;2023-07-30T10:24:17;7.05;;;2.20;;
54261;SDS011;40174;52.364;6.452;2023-07-30T10:26:43;16.98;;;2.75;;
54261;SDS011;40174;52.364;6.452;2023-07-30T10:29:11;8.00;;;1.90;;
54261;SDS011;40174;52.364;6.452;2023-07-30T10:31:40;6.45;;;1.85;;
54261;SDS011;40174;52.364;6.452;2023-07-30T10:34:07;4.63;;;1.88;;
54261;SDS011;40174;52.364;6.452;2023-07-30T10:36:36;9.07;;;2.28;;
54261;SDS011;40174;52.364;6.452;2023-07-30T10:39:12;6.03;;;2.00;;
54261;SDS011;40174;52.364;6.452;2023-07-30T10:41:40;4.45;;;2.00;;
54261;SDS011;40174;52.364;6.452;2023-07-30T10:44:17;5.53;;;1.98;;
54261;SDS011;40174;52.364;6.452;2023-07-30T10:46:46;11.95;;;2.45;;
54261;SDS011;40174;52.364;6.452;2023-07-30T10:49:12;9.40;;;1.95;;
54261;SDS011;40174;52.364;6.452;2023-07-30T10:51:39;8.48;;;2.53;;
54261;SDS011;40174;52.364;6.452;2023-07-30T10:54:06;4.97;;;1.95;;
54261;SDS011;40174;52.364;6.452;2023-07-30T10:56:34;11.45;;;2.08;;
54261;SDS011;40174;52.364;6.452;2023-07-30T10:59:02;5.40;;;1.65;;
54261;SDS011;40174;52.364;6.452;2023-07-30T11:01:30;2.67;;;1.05;;
54261;SDS011;40174;52.364;6.452;2023-07-30T11:03:58;8.93;;;1.48;;
54261;SDS011;40174;52.364;6.452;2023-07-30T11:06:25;3.40;;;1.15;;
54261;SDS011;40174;52.364;6.452;2023-07-30T11:08:52;4.25;;;1.33;;
54261;SDS011;40174;52.364;6.452;2023-07-30T11:11:19;3.28;;;1.33;;
54261;SDS011;40174;52.364;6.452;2023-07-30T11:13:49;5.55;;;1.20;;
54261;SDS011;40174;52.364;6.452;2023-07-30T11:16:16;3.00;;;0.85;;
54261;SDS011;40174;52.364;6.452;2023-07-30T11:18:43;7.75;;;1.27;;
54261;SDS011;40174;52.364;6.452;2023-07-30T11:21:13;2.17;;;0.90;;
54261;SDS011;40174;52.364;6.452;2023-07-30T11:23:41;6.15;;;1.25;;
54261;SDS011;40174;52.364;6.452;2023-07-30T11:26:12;2.72;;;1.05;;
54261;SDS011;40174;52.364;6.452;2023-07-30T11:28:40;9.93;;;1.58;;
54261;SDS011;40174;52.364;6.452;2023-07-30T11:31:07;7.43;;;1.70;;
54261;SDS011;40174;52.364;6.452;2023-07-30T11:33:36;2.95;;;1.00;;
54261;SDS011;40174;52.364;6.452;2023-07-30T11:36:04;2.50;;;1.13;;
54261;SDS011;40174;52.364;6.452;2023-07-30T11:38:34;3.72;;;1.30;;
54261;SDS011;40174;52.364;6.452;2023-07-30T11:41:01;3.40;;;0.95;;
54261;SDS011;40174;52.364;6.452;2023-07-30T11:43:28;4.35;;;1.13;;
54261;SDS011;40174;52.364;6.452;2023-07-30T11:46:08;4.88;;;1.08;;
54261;SDS011;40174;52.364;6.452;2023-07-30T11:48:37;2.30;;;0.80;;
54261;SDS011;40174;52.364;6.452;2023-07-30T11:51:04;4.82;;;1.25;;
54261;SDS011;40174;52.364;6.452;2023-07-30T11:53:45;2.88;;;0.93;;
54261;SDS011;40174;52.364;6.452;2023-07-30T11:56:18;7.03;;;1.00;;
54261;SDS011;40174;52.364;6.452;2023-07-30T11:58:49;3.20;;;0.90;;
54261;SDS011;40174;52.364;6.452;2023-07-30T12:01:17;3.65;;;0.80;;
54261;SDS011;40174;52.364;6.452;2023-07-30T12:03:44;2.58;;;0.80;;
54261;SDS011;40174;52.364;6.452;2023-07-30T12:06:12;3.40;;;0.52;;
54261;SDS011;40174;52.364;6.452;2023-07-30T12:08:39;2.85;;;0.75;;
54261;SDS011;40174;52.364;6.452;2023-07-30T12:11:07;4.95;;;0.52;;
54261;SDS011;40174;52.364;6.452;2023-07-30T12:13:41;2.58;;;1.10;;
54261;SDS011;40174;52.364;6.452;2023-07-30T12:16:09;2.92;;;0.60;;
54261;SDS011;40174;52.364;6.452;2023-07-30T12:18:37;2.00;;;0.65;;
54261;SDS011;40174;52.364;6.452;2023-07-30T12:21:05;6.03;;;0.50;;
54261;SDS011;40174;52.364;6.452;2023-07-30T12:23:33;4.57;;;0.85;;
54261;SDS011;40174;52.364;6.452;2023-07-30T12:26:26;3.20;;;0.65;;
54261;SDS011;40174;52.364;6.452;2023-07-30T12:29:18;3.35;;;0.85;;
54261;SDS011;40174;52.364;6.452;2023-07-30T12:32:10;3.85;;;0.70;;
54261;SDS011;40174;52.364;6.452;2023-07-30T12:35:02;4.75;;;0.73;;
54261;SDS011;40174;52.364;6.452;2023-07-30T12:37:35;1.88;;;0.60;;
54261;SDS011;40174;52.364;6.452;2023-07-30T12:40:02;4.30;;;0.95;;
54261;SDS011;40174;52.364;6.452;2023-07-30T12:42:31;2.42;;;0.85;;
54261;SDS011;40174;52.364;6.452;2023-07-30T12:44:58;2.50;;;0.75;;
54261;SDS011;40174;52.364;6.452;2023-07-30T12:47:25;4.57;;;0.82;;
54261;SDS011;40174;52.364;6.452;2023-07-30T12:49:51;3.92;;;0.68;;
54261;SDS011;40174;52.364;6.452;2023-07-30T12:52:18;2.70;;;0.57;;
54261;SDS011;40174;52.364;6.452;2023-07-30T12:54:45;1.30;;;0.52;;
54261;SDS011;40174;52.364;6.452;2023-07-30T12:57:11;3.08;;;0.60;;
54261;SDS011;40174;52.364;6.452;2023-07-30T12:59:39;2.60;;;0.77;;
54261;SDS011;40174;52.364;6.452;2023-07-30T13:02:06;1.85;;;0.40;;
54261;SDS011;40174;52.364;6.452;2023-07-30T13:04:33;2.88;;;0.80;;
54261;SDS011;40174;52.364;6.452;2023-07-30T13:06:59;3.00;;;0.60;;
54261;SDS011;40174;52.364;6.452;2023-07-30T13:09:27;1.45;;;0.40;;
54261;SDS011;40174;52.364;6.452;2023-07-30T13:11:54;1.50;;;0.38;;
54261;SDS011;40174;52.364;6.452;2023-07-30T13:14:21;3.58;;;0.47;;
54261;SDS011;40174;52.364;6.452;2023-07-30T13:16:49;1.67;;;0.60;;
54261;SDS011;40174;52.364;6.452;2023-07-30T13:19:15;1.75;;;0.68;;
54261;SDS011;40174;52.364;6.452;2023-07-30T13:21:42;3.17;;;0.50;;
54261;SDS011;40174;52.364;6.452;2023-07-30T13:24:08;1.40;;;0.40;;
54261;SDS011;40174;52.364;6.452;2023-07-30T13:26:35;3.47;;;0.80;;
54261;SDS011;40174;52.364;6.452;2023-07-30T13:29:03;3.03;;;0.57;;
54261;SDS011;40174;52.364;6.452;2023-07-30T13:31:30;2.92;;;0.40;;
54261;SDS011;40174;52.364;6.452;2023-07-30T13:33:58;3.92;;;0.43;;
54261;SDS011;40174;52.364;6.452;2023-07-30T13:36:25;1.15;;;0.60;;
54261;SDS011;40174;52.364;6.452;2023-07-30T13:38:51;0.40;;;0.40;;
54261;SDS011;40174;52.364;6.452;2023-07-30T13:41:18;2.00;;;0.40;;
54261;SDS011;40174;52.364;6.452;2023-07-30T13:43:45;2.22;;;0.55;;
54261;SDS011;40174;52.364;6.452;2023-07-30T13:46:11;0.40;;;0.30;;
54261;SDS011;40174;52.364;6.452;2023-07-30T13:48:38;6.40;;;0.70;;
54261;SDS011;40174;52.364;6.452;2023-07-30T13:51:06;3.22;;;0.40;;
54261;SDS011;40174;52.364;6.452;2023-07-30T13:53:33;2.10;;;0.45;;
54261;SDS011;40174;52.364;6.452;2023-07-30T13:56:03;1.17;;;0.32;;
54261;SDS011;40174;52.364;6.452;2023-07-30T13:58:30;4.35;;;0.50;;
54261;SDS011;40174;52.364;6.452;2023-07-30T14:00:56;1.10;;;0.43;;
54261;SDS011;40174;52.364;6.452;2023-07-30T14:03:23;2.30;;;0.40;;
54261;SDS011;40174;52.364;6.452;2023-07-30T14:05:50;3.72;;;0.90;;
54261;SDS011;40174;52.364;6.452;2023-07-30T14:08:18;3.50;;;0.73;;
54261;SDS011;40174;52.364;6.452;2023-07-30T14:10:44;1.27;;;0.63;;
54261;SDS011;40174;52.364;6.452;2023-07-30T14:13:11;1.75;;;0.43;;
54261;SDS011;40174;52.364;6.452;2023-07-30T14:15:39;2.85;;;0.57;;
54261;SDS011;40174;52.364;6.452;2023-07-30T14:18:06;2.55;;;0.50;;
54261;SDS011;40174;52.364;6.452;2023-07-30T14:20:32;2.20;;;0.55;;
54261;SDS011;40174;52.364;6.452;2023-07-30T14:23:02;0.77;;;0.30;;
54261;SDS011;40174;52.364;6.452;2023-07-30T14:25:30;1.73;;;0.40;;
54261;SDS011;40174;52.364;6.452;2023-07-30T14:27:57;2.15;;;0.28;;
54261;SDS011;40174;52.364;6.452;2023-07-30T14:30:24;1.55;;;0.30;;
54261;SDS011;40174;52.364;6.452;2023-07-30T14:32:51;0.65;;;0.40;;
54261;SDS011;40174;52.364;6.452;2023-07-30T14:35:17;3.10;;;0.40;;
54261;SDS011;40174;52.364;6.452;2023-07-30T14:37:44;1.95;;;0.32;;
54261;SDS011;40174;52.364;6.452;2023-07-30T14:40:11;1.70;;;0.38;;
54261;SDS011;40174;52.364;6.452;2023-07-30T14:42:39;2.33;;;0.30;;
54261;SDS011;40174;52.364;6.452;2023-07-30T14:45:06;1.80;;;0.38;;
54261;SDS011;40174;52.364;6.452;2023-07-30T14:47:33;0.75;;;0.30;;
54261;SDS011;40174;52.364;6.452;2023-07-30T14:50:00;1.10;;;0.40;;
54261;SDS011;40174;52.364;6.452;2023-07-30T14:52:27;2.67;;;0.35;;